createdAt,value
2023-07-07T00:00:27.657Z,12.00
2023-07-07T00:02:54.566Z,11.90
2023-07-07T00:05:21.667Z,11.90
2023-07-07T00:07:49.775Z,11.90
2023-07-07T00:10:18.330Z,11.80
2023-07-07T00:12:47.284Z,11.80
2023-07-07T00:15:15.443Z,11.80
2023-07-07T00:17:43.727Z,11.70
2023-07-07T00:20:13.851Z,11.70
2023-07-07T00:22:41.848Z,11.60
2023-07-07T00:25:10.766Z,11.40
2023-07-07T00:27:39.233Z,11.20
2023-07-07T00:30:08.661Z,11.10
2023-07-07T00:32:35.710Z,11.10
2023-07-07T00:35:04.890Z,11.20
2023-07-07T00:37:32.036Z,11.20
2023-07-07T00:39:59.024Z,11.20
2023-07-07T00:42:25.942Z,11.20
2023-07-07T00:45:22.348Z,11.20
2023-07-07T00:48:04.799Z,11.10
2023-07-07T00:50:46.230Z,10.90
2023-07-07T00:53:14.098Z,10.70
2023-07-07T00:55:52.921Z,10.60
2023-07-07T00:58:24.611Z,10.60
2023-07-07T01:01:07.018Z,10.50
2023-07-07T01:03:49.508Z,10.40
2023-07-07T01:06:24.804Z,10.30
2023-07-07T01:09:02.703Z,10.40
2023-07-07T01:11:31.325Z,10.40
2023-07-07T01:14:03.904Z,10.40
2023-07-07T01:16:49.048Z,10.40
2023-07-07T01:20:01.120Z,10.30
2023-07-07T01:23:33.568Z,10.30
2023-07-07T01:26:27.360Z,10.40
2023-07-07T01:29:46.129Z,10.40
2023-07-07T01:32:23.676Z,10.30
2023-07-07T01:34:58.066Z,10.40
2023-07-07T01:37:25.726Z,10.40
2023-07-07T01:39:55.671Z,10.30
2023-07-07T01:42:52.548Z,10.40
2023-07-07T01:45:30.888Z,10.40
2023-07-07T01:48:25.964Z,10.40
2023-07-07T01:50:53.593Z,10.40
2023-07-07T01:53:28.710Z,10.40
2023-07-07T01:56:01.785Z,10.40
2023-07-07T01:58:33.487Z,10.30
2023-07-07T02:01:03.240Z,10.30
2023-07-07T02:03:30.568Z,10.20
2023-07-07T02:05:57.579Z,10.30
2023-07-07T02:08:24.743Z,10.40
2023-07-07T02:10:51.811Z,10.40
2023-07-07T02:13:18.864Z,10.30
2023-07-07T02:15:45.850Z,10.30
2023-07-07T02:18:12.931Z,10.30
2023-07-07T02:20:40.985Z,10.40
2023-07-07T02:23:07.955Z,10.50
2023-07-07T02:25:34.863Z,10.40
2023-07-07T02:28:01.864Z,10.30
2023-07-07T02:30:30.900Z,10.20
2023-07-07T02:32:58.730Z,10.20
2023-07-07T02:35:25.834Z,10.20
2023-07-07T02:37:52.850Z,10.20
2023-07-07T02:40:20.505Z,10.10
2023-07-07T02:42:47.515Z,10.10
2023-07-07T02:45:15.308Z,10.10
2023-07-07T02:47:42.845Z,10.00
2023-07-07T02:50:10.313Z,10.00
2023-07-07T02:52:37.298Z,10.10
2023-07-07T02:55:04.470Z,10.30
2023-07-07T02:57:32.279Z,10.40
2023-07-07T02:59:59.340Z,10.50
2023-07-07T03:02:26.271Z,10.50
2023-07-07T03:05:00.628Z,10.60
2023-07-07T03:07:27.591Z,10.50
2023-07-07T03:10:04.130Z,10.40
2023-07-07T03:12:31.047Z,10.40
2023-07-07T03:14:58.163Z,10.30
2023-07-07T03:17:34.764Z,10.40
2023-07-07T03:20:03.865Z,10.40
2023-07-07T03:22:37.447Z,10.40
2023-07-07T03:25:04.839Z,10.40
2023-07-07T03:27:32.542Z,10.30
2023-07-07T03:29:59.780Z,10.30
2023-07-07T03:32:28.638Z,10.30
2023-07-07T03:34:55.618Z,10.40
2023-07-07T03:37:22.541Z,10.50
2023-07-07T03:39:49.485Z,10.50
2023-07-07T03:42:18.500Z,10.60
2023-07-07T03:44:45.416Z,10.70
2023-07-07T03:47:12.381Z,10.70
2023-07-07T03:49:39.321Z,10.70
2023-07-07T03:52:07.151Z,10.80
2023-07-07T03:54:34.089Z,11.10
2023-07-07T03:57:01.011Z,11.40
2023-07-07T03:59:27.998Z,11.50
2023-07-07T04:01:54.923Z,11.40
2023-07-07T04:04:22.140Z,11.40
2023-07-07T04:06:50.196Z,11.30
2023-07-07T04:09:17.151Z,11.50
2023-07-07T04:11:44.096Z,11.70
2023-07-07T04:14:12.193Z,11.90
2023-07-07T04:16:39.187Z,11.90
2023-07-07T04:19:06.192Z,11.90
2023-07-07T04:21:35.345Z,11.90
2023-07-07T04:24:04.883Z,11.90
2023-07-07T04:26:32.836Z,12.00
2023-07-07T04:29:02.194Z,12.10
2023-07-07T04:31:31.962Z,12.20
2023-07-07T04:33:59.316Z,12.40
2023-07-07T04:36:28.411Z,12.70
2023-07-07T04:38:55.385Z,12.80
2023-07-07T04:41:27.534Z,12.80
2023-07-07T04:44:01.280Z,12.80
2023-07-07T04:46:38.778Z,12.80
2023-07-07T04:49:11.329Z,12.80
2023-07-07T04:51:42.390Z,12.80
2023-07-07T04:54:14.614Z,13.00
2023-07-07T04:56:41.772Z,13.10
2023-07-07T04:59:08.709Z,13.20
2023-07-07T05:01:38.135Z,13.30
2023-07-07T05:04:06.621Z,13.40
2023-07-07T05:06:38.794Z,13.60
2023-07-07T05:09:09.290Z,13.90
2023-07-07T05:11:38.779Z,14.30
2023-07-07T05:14:07.164Z,14.80
2023-07-07T05:16:39.638Z,15.30
2023-07-07T05:19:08.631Z,15.70
2023-07-07T05:21:36.201Z,15.90
2023-07-07T05:24:04.982Z,16.00
2023-07-07T05:26:31.999Z,16.10
2023-07-07T05:29:04.912Z,16.30
2023-07-07T05:31:33.334Z,16.70
2023-07-07T05:34:01.632Z,17.10
2023-07-07T05:36:29.038Z,17.50
2023-07-07T05:38:55.970Z,17.90
2023-07-07T05:41:22.874Z,18.30
2023-07-07T05:43:50.591Z,18.70
2023-07-07T05:46:18.172Z,19.10
2023-07-07T05:48:45.360Z,19.50
2023-07-07T05:51:17.907Z,19.90
2023-07-07T05:53:45.118Z,20.30
2023-07-07T05:56:23.479Z,20.70
2023-07-07T05:58:56.411Z,21.00
2023-07-07T06:01:24.504Z,21.20
2023-07-07T06:03:51.772Z,21.40
2023-07-07T06:06:18.987Z,21.50
2023-07-07T06:08:45.966Z,21.70
2023-07-07T06:11:13.513Z,21.80
2023-07-07T06:13:40.481Z,21.90
2023-07-07T06:16:07.953Z,22.10
2023-07-07T06:18:35.440Z,22.30
2023-07-07T06:21:03.855Z,22.40
2023-07-07T06:23:33.162Z,22.60
2023-07-07T06:26:00.522Z,22.80
2023-07-07T06:28:28.402Z,22.90
2023-07-07T06:30:55.749Z,23.10
2023-07-07T06:33:23.611Z,23.10
2023-07-07T06:35:51.809Z,23.30
2023-07-07T06:38:19.044Z,23.40
2023-07-07T06:40:48.896Z,23.60
2023-07-07T06:43:19.928Z,23.60
2023-07-07T06:45:52.653Z,23.70
2023-07-07T06:48:19.632Z,23.80
2023-07-07T06:50:47.156Z,24.00
2023-07-07T06:53:14.199Z,24.10
2023-07-07T06:55:41.641Z,24.30
2023-07-07T06:58:13.875Z,24.50
2023-07-07T07:00:44.494Z,24.60
2023-07-07T07:03:11.770Z,24.60
2023-07-07T07:05:41.120Z,24.70
2023-07-07T07:08:08.299Z,24.80
2023-07-07T07:10:35.364Z,24.80
2023-07-07T07:13:02.317Z,25.00
2023-07-07T07:15:29.227Z,25.30
2023-07-07T07:17:56.194Z,25.30
2023-07-07T07:20:23.323Z,25.40
2023-07-07T07:22:50.868Z,25.70
2023-07-07T07:25:18.079Z,25.80
2023-07-07T07:27:45.104Z,26.00
2023-07-07T07:30:13.256Z,25.80
2023-07-07T07:32:41.416Z,25.90
2023-07-07T07:35:11.440Z,26.00
2023-07-07T07:37:39.057Z,26.00
2023-07-07T07:40:07.982Z,26.00
2023-07-07T07:42:35.034Z,26.30
2023-07-07T07:45:02.017Z,26.50
2023-07-07T07:47:29.272Z,26.50
2023-07-07T07:49:56.390Z,26.60
2023-07-07T07:52:24.388Z,26.60
2023-07-07T07:54:51.684Z,26.90
2023-07-07T07:57:18.669Z,27.00
2023-07-07T07:59:45.614Z,27.20
2023-07-07T08:03:31.832Z,27.40
2023-07-07T08:05:58.850Z,27.90
2023-07-07T08:08:25.779Z,27.90
2023-07-07T08:11:05.768Z,28.10
2023-07-07T08:13:40.396Z,28.20
2023-07-07T08:16:12.486Z,28.10
2023-07-07T08:18:41.300Z,28.30
2023-07-07T08:21:08.495Z,28.50
2023-07-07T08:23:35.534Z,28.60
2023-07-07T08:28:35.568Z,29.00
2023-07-07T08:31:02.890Z,29.30
2023-07-07T08:33:30.068Z,29.80
2023-07-07T08:35:57.421Z,30.30
2023-07-07T08:38:24.589Z,30.50
2023-07-07T08:40:57.038Z,30.30
2023-07-07T08:43:29.271Z,30.20
2023-07-07T08:47:02.029Z,30.30
2023-07-07T08:50:02.317Z,30.80
2023-07-07T08:52:40.749Z,30.80
2023-07-07T08:55:30.461Z,30.10
2023-07-07T08:58:28.937Z,30.40
2023-07-07T09:01:34.403Z,31.00
2023-07-07T09:05:14.340Z,31.40
2023-07-07T09:08:15.329Z,32.30
2023-07-07T09:10:53.344Z,33.30
2023-07-07T09:13:33.576Z,33.90
2023-07-07T09:16:38.235Z,33.40
2023-07-07T09:19:25.281Z,32.50
2023-07-07T09:22:25.211Z,29.90
2023-07-07T09:25:37.546Z,28.60
2023-07-07T09:28:18.293Z,28.70
2023-07-07T09:30:50.176Z,29.90
2023-07-07T09:33:24.506Z,30.80
2023-07-07T09:36:09.484Z,29.90
2023-07-07T09:38:55.932Z,29.10
2023-07-07T09:41:52.870Z,29.30
2023-07-07T09:45:02.478Z,30.80
2023-07-07T09:48:21.084Z,31.60
2023-07-07T09:51:30.127Z,31.40
2023-07-07T09:53:57.608Z,32.20
2023-07-07T09:56:40.357Z,32.80
2023-07-07T09:59:20.425Z,32.90
2023-07-07T10:01:53.921Z,33.50
2023-07-07T10:04:25.812Z,31.00
2023-07-07T10:07:07.328Z,31.30
2023-07-07T10:09:35.313Z,32.20
2023-07-07T10:12:19.803Z,31.80
2023-07-07T10:14:50.602Z,32.10
2023-07-07T10:18:01.592Z,32.90
2023-07-07T10:20:28.897Z,33.60
2023-07-07T10:22:55.911Z,32.90
2023-07-07T10:25:26.745Z,33.20
2023-07-07T10:27:56.475Z,34.20
2023-07-07T10:30:25.137Z,34.70
2023-07-07T10:32:54.386Z,36.00
2023-07-07T10:35:25.413Z,35.90
2023-07-07T10:37:52.333Z,35.40
2023-07-07T10:40:25.768Z,35.60
2023-07-07T10:42:57.985Z,35.00
2023-07-07T10:45:26.248Z,34.80
2023-07-07T10:47:53.840Z,34.40
2023-07-07T10:50:28.573Z,33.90
2023-07-07T10:53:36.263Z,34.00
2023-07-07T10:56:42.783Z,33.60
2023-07-07T10:59:29.244Z,34.10
2023-07-07T11:02:24.054Z,35.50
2023-07-07T11:06:04.589Z,37.10
2023-07-07T11:09:10.204Z,36.30
2023-07-07T11:12:36.929Z,34.90
2023-07-07T11:15:53.330Z,34.80
2023-07-07T11:19:05.072Z,35.40
2023-07-07T11:22:21.256Z,36.50
2023-07-07T11:25:20.827Z,37.20
2023-07-07T11:28:13.056Z,36.90
2023-07-07T11:30:57.286Z,37.20
2023-07-07T11:33:57.987Z,38.30
2023-07-07T11:37:45.079Z,39.50
2023-07-07T11:40:43.786Z,39.10
2023-07-07T11:43:51.443Z,38.10
2023-07-07T11:47:18.486Z,38.30
2023-07-07T11:50:23.690Z,39.20
2023-07-07T11:53:37.022Z,38.80
2023-07-07T11:56:38.874Z,37.00
2023-07-07T11:59:31.038Z,36.10
2023-07-07T12:02:01.971Z,35.70
2023-07-07T12:04:53.172Z,36.30
2023-07-07T12:07:54.044Z,37.00
2023-07-07T12:10:31.142Z,36.50
2023-07-07T12:13:05.824Z,37.20
2023-07-07T12:15:45.701Z,38.40
2023-07-07T12:18:34.237Z,37.40
2023-07-07T12:21:32.936Z,37.10
2023-07-07T12:24:49.038Z,36.30
2023-07-07T12:27:43.450Z,35.70
2023-07-07T12:30:31.881Z,36.20
2023-07-07T12:32:59.986Z,37.10
2023-07-07T12:35:59.539Z,37.40
2023-07-07T12:38:37.501Z,37.80
2023-07-07T12:41:18.647Z,37.80
2023-07-07T12:43:57.418Z,37.40
2023-07-07T12:46:33.817Z,37.50
2023-07-07T12:49:22.788Z,37.80
2023-07-07T12:51:59.466Z,38.60
2023-07-07T12:54:37.436Z,39.00
2023-07-07T12:57:19.137Z,38.50
2023-07-07T12:59:46.858Z,39.20
2023-07-07T13:02:25.395Z,39.30
2023-07-07T13:05:24.236Z,38.20
2023-07-07T13:08:02.548Z,37.00
2023-07-07T13:10:43.000Z,37.20
2023-07-07T13:13:28.628Z,38.00
2023-07-07T13:15:56.102Z,38.20
2023-07-07T13:18:23.226Z,36.50
2023-07-07T13:20:52.792Z,35.30
2023-07-07T13:23:40.276Z,35.30
2023-07-07T13:26:24.867Z,35.80
2023-07-07T13:28:52.208Z,37.60
2023-07-07T13:31:19.245Z,39.20
2023-07-07T13:33:47.715Z,39.00
2023-07-07T13:36:15.218Z,38.30
2023-07-07T13:38:49.198Z,37.00
2023-07-07T13:41:21.039Z,36.20
2023-07-07T13:43:54.013Z,36.50
2023-07-07T13:46:32.336Z,38.10
2023-07-07T13:49:12.194Z,39.10
2023-07-07T13:51:44.737Z,39.20
2023-07-07T13:54:17.831Z,39.50
2023-07-07T13:56:54.615Z,39.20
2023-07-07T13:59:29.294Z,38.60
2023-07-07T14:01:58.991Z,38.00
2023-07-07T14:04:39.100Z,38.70
2023-07-07T14:07:18.690Z,38.70
2023-07-07T14:09:50.806Z,37.80
2023-07-07T14:12:29.551Z,37.40
2023-07-07T14:14:59.833Z,38.20
2023-07-07T14:17:39.911Z,38.50
2023-07-07T14:20:25.576Z,39.30
2023-07-07T14:22:53.930Z,39.50
2023-07-07T14:25:23.427Z,39.10
2023-07-07T14:27:59.042Z,38.80
2023-07-07T14:30:27.168Z,37.80
2023-07-07T14:32:59.983Z,36.30
2023-07-07T14:35:34.817Z,35.80
2023-07-07T14:38:30.236Z,35.60
2023-07-07T14:41:00.628Z,35.70
2023-07-07T14:43:41.744Z,35.60
2023-07-07T14:46:36.826Z,35.20
2023-07-07T14:49:20.810Z,35.70
2023-07-07T14:51:52.735Z,36.30
2023-07-07T14:54:26.718Z,37.20
2023-07-07T14:57:05.704Z,37.50
2023-07-07T14:59:38.022Z,38.20
2023-07-07T15:02:16.527Z,37.90
2023-07-07T15:04:46.268Z,38.00
2023-07-07T15:07:30.069Z,37.60
2023-07-07T15:10:01.913Z,36.10
2023-07-07T15:12:32.803Z,35.30
2023-07-07T15:15:00.410Z,35.10
2023-07-07T15:17:27.747Z,35.10
2023-07-07T15:19:54.764Z,35.70
2023-07-07T15:22:22.485Z,36.60
2023-07-07T15:24:51.674Z,36.60
2023-07-07T15:27:21.362Z,36.80
2023-07-07T15:29:49.614Z,36.50
2023-07-07T15:32:20.626Z,36.50
2023-07-07T15:34:47.879Z,37.30
2023-07-07T15:37:15.205Z,37.80
2023-07-07T15:39:42.190Z,37.50
2023-07-07T15:42:15.981Z,36.30
2023-07-07T15:44:42.998Z,35.00
2023-07-07T15:47:23.898Z,34.30
2023-07-07T15:49:51.877Z,34.10
2023-07-07T15:52:19.897Z,34.20
2023-07-07T15:54:48.171Z,34.10
2023-07-07T15:57:16.385Z,34.50
2023-07-07T15:59:44.488Z,34.60
2023-07-07T16:02:20.009Z,34.20
2023-07-07T16:04:48.154Z,34.00
2023-07-07T16:07:17.377Z,34.00
2023-07-07T16:09:44.678Z,34.20
2023-07-07T16:12:18.061Z,33.90
2023-07-07T16:14:45.678Z,33.80
2023-07-07T16:17:19.375Z,33.90
2023-07-07T16:19:46.511Z,34.00
2023-07-07T16:22:17.527Z,34.20
2023-07-07T16:24:44.727Z,34.80
2023-07-07T16:27:19.170Z,34.80
2023-07-07T16:29:47.447Z,34.40
2023-07-07T16:32:14.659Z,33.80
2023-07-07T16:34:42.662Z,33.50
2023-07-07T16:37:15.083Z,33.40
2023-07-07T16:39:42.099Z,33.20
2023-07-07T16:42:15.780Z,33.20
2023-07-07T16:44:42.710Z,32.80
2023-07-07T16:47:14.981Z,32.40
2023-07-07T16:49:41.939Z,32.30
2023-07-07T16:52:10.536Z,32.00
2023-07-07T16:54:37.476Z,31.80
2023-07-07T16:57:05.146Z,31.60
2023-07-07T16:59:32.140Z,31.70
2023-07-07T17:01:59.448Z,31.80
2023-07-07T17:04:27.785Z,31.70
2023-07-07T17:06:54.830Z,31.40
2023-07-07T17:09:22.950Z,31.30
2023-07-07T17:11:50.236Z,31.30
2023-07-07T17:14:17.348Z,31.30
2023-07-07T17:16:44.959Z,30.90
2023-07-07T17:19:23.433Z,30.50
2023-07-07T17:21:51.982Z,30.40
2023-07-07T17:24:19.779Z,30.60
2023-07-07T17:26:51.728Z,30.60
2023-07-07T17:29:18.690Z,30.30
2023-07-07T17:31:45.872Z,30.30
2023-07-07T17:34:14.159Z,30.30
2023-07-07T17:36:42.279Z,30.30
2023-07-07T17:39:17.365Z,30.30
2023-07-07T17:41:45.281Z,30.00
2023-07-07T17:44:12.514Z,29.70
2023-07-07T17:46:41.158Z,29.60
2023-07-07T17:49:17.010Z,29.60
2023-07-07T17:51:45.247Z,29.50
2023-07-07T17:54:13.488Z,29.50
2023-07-07T17:56:43.206Z,29.40
2023-07-07T17:59:21.093Z,29.10
2023-07-07T18:01:52.142Z,28.90
2023-07-07T18:04:19.140Z,28.60
2023-07-07T18:06:53.436Z,28.40
2023-07-07T18:09:20.654Z,28.30
2023-07-07T18:11:49.355Z,28.20
2023-07-07T18:14:18.535Z,28.00
2023-07-07T18:16:53.339Z,27.90
2023-07-07T18:19:41.323Z,27.50
2023-07-07T18:22:13.425Z,27.20
2023-07-07T18:24:40.719Z,26.70
2023-07-07T18:27:11.091Z,26.40
2023-07-07T18:29:38.364Z,26.20
2023-07-07T18:32:12.702Z,25.90
2023-07-07T18:34:40.573Z,25.80
2023-07-07T18:37:15.122Z,25.60
2023-07-07T18:39:42.162Z,25.40
2023-07-07T18:42:12.226Z,25.20
2023-07-07T18:44:39.247Z,25.10
2023-07-07T18:47:16.176Z,25.00
2023-07-07T18:49:44.270Z,24.90
2023-07-07T18:52:11.387Z,24.70
2023-07-07T18:54:38.434Z,24.60
2023-07-07T18:57:06.149Z,24.50
2023-07-07T18:59:33.316Z,24.30
2023-07-07T19:02:00.491Z,24.10
2023-07-07T19:04:27.556Z,24.00
2023-07-07T19:06:54.632Z,23.80
2023-07-07T19:09:25.616Z,23.70
2023-07-07T19:11:57.315Z,23.60
2023-07-07T19:14:24.362Z,23.50
2023-07-07T19:16:53.890Z,23.40
2023-07-07T19:19:27.406Z,23.20
2023-07-07T19:21:54.850Z,23.10
2023-07-07T19:24:22.310Z,23.00
2023-07-07T19:26:55.664Z,22.90
2023-07-07T19:29:23.103Z,22.70
2023-07-07T19:31:54.877Z,22.70
2023-07-07T19:34:28.657Z,22.60
2023-07-07T19:36:57.179Z,22.50
2023-07-07T19:39:26.657Z,22.40
2023-07-07T19:41:55.830Z,22.30
2023-07-07T19:44:28.565Z,22.10
2023-07-07T19:46:55.625Z,22.10
2023-07-07T19:49:28.831Z,22.00
2023-07-07T19:51:56.168Z,21.90
2023-07-07T19:54:24.869Z,21.80
2023-07-07T19:56:53.601Z,21.70
2023-07-07T19:59:21.576Z,21.60
2023-07-07T20:01:50.326Z,21.60
2023-07-07T20:04:24.199Z,21.60
2023-07-07T20:06:51.242Z,21.70
2023-07-07T20:09:21.967Z,21.60
2023-07-07T20:11:51.244Z,21.50
2023-07-07T20:14:18.185Z,21.40
2023-07-07T20:16:51.636Z,21.20
2023-07-07T20:19:22.708Z,20.90
2023-07-07T20:21:52.826Z,20.60
2023-07-07T20:24:24.746Z,20.30
2023-07-07T20:26:57.194Z,20.00
2023-07-07T20:29:30.425Z,19.80
2023-07-07T20:31:57.474Z,19.50
2023-07-07T20:34:25.815Z,19.40
2023-07-07T20:36:53.647Z,19.30
2023-07-07T20:39:22.056Z,19.20
2023-07-07T20:41:50.853Z,19.10
2023-07-07T20:44:17.886Z,18.90
2023-07-07T20:46:47.325Z,18.80
2023-07-07T20:49:20.955Z,18.60
2023-07-07T20:51:53.489Z,18.50
2023-07-07T20:54:21.397Z,18.30
2023-07-07T20:56:48.523Z,18.20
2023-07-07T20:59:32.341Z,18.10
2023-07-07T21:01:59.353Z,18.00
2023-07-07T21:04:27.431Z,18.00
2023-07-07T21:06:54.767Z,17.90
2023-07-07T21:09:23.577Z,17.90
2023-07-07T21:11:50.781Z,17.80
2023-07-07T21:14:18.797Z,17.70
2023-07-07T21:16:49.476Z,17.70
2023-07-07T21:19:16.632Z,17.80
2023-07-07T21:21:44.341Z,17.90
2023-07-07T21:24:11.339Z,18.00
2023-07-07T21:26:38.535Z,17.90
2023-07-07T21:29:13.466Z,17.80
2023-07-07T21:31:41.081Z,17.70
2023-07-07T21:34:09.571Z,17.50
2023-07-07T21:36:41.255Z,17.40
2023-07-07T21:39:30.814Z,17.20
2023-07-07T21:42:11.590Z,17.20
2023-07-07T21:44:41.549Z,17.20
2023-07-07T21:47:17.325Z,17.10
2023-07-07T21:49:47.574Z,17.10
2023-07-07T21:52:18.412Z,17.00
2023-07-07T21:54:45.649Z,16.80
2023-07-07T21:57:52.332Z,16.70
2023-07-07T22:00:28.182Z,16.60
2023-07-07T22:03:01.170Z,16.60
2023-07-07T22:05:30.633Z,16.50
2023-07-07T22:07:57.747Z,16.40
2023-07-07T22:10:42.578Z,16.30
2023-07-07T22:13:11.541Z,16.30
2023-07-07T22:15:40.648Z,16.30
2023-07-07T22:18:20.747Z,16.20
2023-07-07T22:20:58.016Z,16.20
2023-07-07T22:23:25.548Z,16.20
2023-07-07T22:25:53.067Z,16.20
2023-07-07T22:28:32.214Z,16.30
2023-07-07T22:31:02.342Z,16.30
2023-07-07T22:33:30.967Z,16.40
2023-07-07T22:35:58.181Z,16.50
2023-07-07T22:38:28.589Z,16.60
2023-07-07T22:40:58.490Z,16.60
2023-07-07T22:43:25.691Z,16.50
2023-07-07T22:45:59.624Z,16.50
2023-07-07T22:48:26.622Z,16.50
2023-07-07T22:50:53.692Z,16.50
2023-07-07T22:53:21.003Z,16.40
2023-07-07T22:55:48.817Z,16.40
2023-07-07T22:58:21.988Z,16.40
2023-07-07T23:00:50.513Z,16.30
2023-07-07T23:03:17.782Z,16.20
2023-07-07T23:05:47.370Z,16.20
2023-07-07T23:08:26.392Z,16.20
2023-07-07T23:10:53.825Z,16.10
2023-07-07T23:13:21.375Z,16.00
2023-07-07T23:15:48.560Z,15.90
2023-07-07T23:18:16.983Z,15.90
2023-07-07T23:20:44.502Z,15.90
2023-07-07T23:23:22.250Z,15.90
2023-07-07T23:25:57.809Z,16.00
2023-07-07T23:28:27.524Z,15.90
2023-07-07T23:31:06.395Z,15.90
2023-07-07T23:33:36.645Z,16.00
2023-07-07T23:36:18.817Z,16.10
2023-07-07T23:38:46.232Z,16.10
2023-07-07T23:41:14.706Z,15.90
2023-07-07T23:43:42.022Z,15.90
2023-07-07T23:46:17.312Z,15.80
2023-07-07T23:48:45.646Z,15.70
2023-07-07T23:51:14.141Z,15.60
2023-07-07T23:53:43.679Z,15.50
2023-07-07T23:56:24.485Z,15.60
2023-07-07T23:58:51.750Z,15.60
